Terminal Aerodrome Forecast
Issued by NWS

Home | Current Version | Previous Version | Text Only | Print | Product List | Glossary On
Versions: 1 2 3 4 5 6 7 8 9 10 11 12 13 14 15
000
FTAK31 PAFA 160740 AAA
TAFAQT
TAF AMD
PAQT 160740Z 1608/1706 VRB05KT P6SM BKN200
      TEMPO 1608/1610 1/2SM FZFG SCT001 SCT070
     FM161000 28004KT 2SM BR SCT004 BKN050
     FM161500 27005KT 4SM BR SCT004 BKN015
     FM170000 29005KT P6SM VCFG BKN050=

USA.gov is the U.S. government's official web portal to all federal, state and local government web resources and services.